Chaval, Brazil
Current Conditions -  °F | °C
As of 5:00 PM on Saturday 20 Dec 2014 (Local Time) from SBPB Reporting Station
Clear Clear  
Wind Chill: 88°   Ceiling: Unl
Heat Index: 94°   Visibility: 6mi
Dew Point: 72°   Wind: 23mph
Humidity: 58%   Direction: 100°E
Pressure: 29.8"   Gusts: NA
Location:  3.08°S, 41.45°W
Report Text: SBPB 202000Z 10020KT CAVOK 31/22 Q1009
Loading
Personal Weather Stations






























Interactive Weather Map New forecast layout! Learn more

10-Day Weather Forecast

Advertisements
Track Severe Weather on mobile